createdAt,value
2015-05-07T06:02:41.750Z,100772
2015-05-07T06:02:50.440Z,100772
2015-05-07T06:02:59.080Z,100769
2015-05-07T06:03:07.737Z,100755
2015-05-07T06:03:16.362Z,100755
2015-05-07T06:03:25.018Z,100752
2015-05-07T06:03:33.643Z,100757
2015-05-07T06:03:42.284Z,100757
2015-05-07T06:03:51.457Z,100757
2015-05-07T06:04:00.082Z,100760
2015-05-07T06:04:08.723Z,100760
2015-05-07T06:04:17.364Z,100754
2015-05-07T06:04:26.036Z,100763
2015-05-07T06:04:34.707Z,100763
2015-05-07T06:04:43.379Z,100757
2015-05-07T06:04:52.039Z,100757
2015-05-07T06:05:00.695Z,100760
2015-05-07T06:05:09.351Z,100754
2015-05-07T06:05:17.992Z,100760
2015-05-07T06:05:26.632Z,100754
2015-05-07T06:05:35.273Z,100757
2015-05-07T06:05:43.914Z,100757
2015-05-07T06:05:53.102Z,100760
2015-05-07T06:06:01.743Z,100763
2015-05-07T06:06:10.930Z,100763
2015-05-07T06:06:19.633Z,100765
2015-05-07T06:06:28.305Z,100760
2015-05-07T06:06:37.024Z,100768
2015-05-07T06:06:45.758Z,100765
2015-05-07T06:06:54.418Z,100762
2015-05-07T06:07:03.058Z,100762
2015-05-07T06:07:11.699Z,100757
2015-05-07T06:07:20.214Z,100762
2015-05-07T06:07:28.886Z,100762
2015-05-07T06:07:37.511Z,100751
2015-05-07T06:08:21.296Z,100759
2015-05-07T06:08:29.983Z,100771
2015-05-07T06:08:38.608Z,100759
2015-05-07T06:08:47.264Z,100768
2015-05-07T06:08:56.454Z,100762
2015-05-07T06:09:05.188Z,100765
2015-05-07T06:10:30.832Z,100765
2015-05-07T06:10:39.472Z,100759
2015-05-07T06:10:48.207Z,100751
2015-05-07T06:10:56.863Z,100759
2015-05-07T06:11:05.912Z,100765
2015-05-07T06:11:14.584Z,100762
2015-05-07T06:11:23.256Z,100768
2015-05-07T06:11:31.943Z,100777
2015-05-07T06:11:40.631Z,100771
2015-05-07T06:15:22.344Z,100780
2015-05-07T06:16:31.002Z,100765
2015-05-07T06:17:39.661Z,100759
2015-05-07T06:18:48.976Z,100768
2015-05-07T06:19:48.151Z,100763
2015-05-07T06:20:56.810Z,100774
2015-05-07T06:22:05.406Z,100782
2015-05-07T06:23:14.986Z,100768
2015-05-07T06:24:23.754Z,100779
2015-05-07T06:25:32.397Z,100791
2015-05-07T06:26:41.024Z,100776
2015-05-07T06:27:49.636Z,100782
2015-05-07T06:28:58.232Z,100791
2015-05-07T06:30:06.860Z,100773
2015-05-07T06:31:15.473Z,100788
2015-05-07T06:32:24.100Z,100788
2015-05-07T06:33:32.745Z,100785
2015-05-07T06:34:41.389Z,100788
2015-05-07T06:35:50.515Z,100776
2015-05-07T06:36:59.158Z,100788
2015-05-07T06:38:07.785Z,100782
2015-05-07T06:39:16.413Z,100788
2015-05-07T06:40:25.056Z,100791
2015-05-07T06:41:33.700Z,100793
2015-05-07T06:42:42.905Z,100791
2015-05-07T06:43:51.485Z,100793
2015-05-07T06:45:00.114Z,100796
2015-05-07T06:46:08.788Z,100791
2015-05-07T06:47:17.415Z,100813
2015-05-07T06:48:26.043Z,100813
2015-05-07T06:49:34.656Z,100813
2015-05-07T06:50:43.252Z,100807
2015-05-07T06:51:51.864Z,100807
2015-05-07T06:53:00.461Z,100815
2015-05-07T06:54:09.072Z,100810
2015-05-07T06:55:17.700Z,100801
2015-05-07T06:56:26.360Z,100821
2015-05-07T06:57:35.002Z,100824
2015-05-07T06:58:43.661Z,100824
2015-05-07T06:59:52.334Z,100821
2015-05-07T07:01:00.978Z,100815
2015-05-07T07:02:09.558Z,100827
2015-05-07T07:03:18.202Z,100812
2015-05-07T07:04:26.830Z,100835
2015-05-07T07:05:35.474Z,100826
2015-05-07T07:07:34.790Z,100844
2015-05-07T07:08:43.436Z,100829
2015-05-07T07:09:52.063Z,100837
2015-05-07T07:11:00.753Z,100837
2015-05-07T07:12:09.396Z,100837
2015-05-07T07:13:18.008Z,100829
2015-05-07T07:14:26.635Z,100834
2015-05-07T07:15:35.215Z,100848
2015-05-07T07:17:43.111Z,100831
2015-05-07T07:18:51.753Z,100843
2015-05-07T07:20:00.381Z,100851
2015-05-07T07:21:09.025Z,100834
2015-05-07T07:22:17.636Z,100845
2015-05-07T07:23:26.327Z,100837
2015-05-07T07:24:34.954Z,100848
2015-05-07T07:25:43.553Z,100831
2015-05-07T07:26:52.164Z,100837
2015-05-07T07:28:00.761Z,100822
2015-05-07T07:29:09.403Z,100828
2015-05-07T07:30:18.000Z,100837
2015-05-07T07:31:26.643Z,100845
2015-05-07T07:32:35.286Z,100837
2015-05-07T07:33:43.976Z,100847
2015-05-07T07:34:52.510Z,100847
2015-05-07T07:36:01.137Z,100850
2015-05-07T07:37:09.750Z,100853
2015-05-07T07:38:18.423Z,100850
2015-05-07T07:39:27.019Z,100853
2015-05-07T07:40:35.616Z,100853
2015-05-07T07:41:44.262Z,100859
2015-05-07T07:42:52.920Z,100845
2015-05-07T07:44:01.563Z,100853
2015-05-07T07:45:10.206Z,100859
2015-05-07T07:46:18.833Z,100850
2015-05-07T07:47:27.445Z,100865
2015-05-07T07:48:36.041Z,100853
2015-05-07T07:49:44.669Z,100856
2015-05-07T07:50:53.296Z,100859
2015-05-07T07:52:01.909Z,100850
2015-05-07T07:53:10.582Z,100856
2015-05-07T07:54:19.195Z,100859
2015-05-07T07:55:27.854Z,100859
2015-05-07T07:56:36.512Z,100853
2015-05-07T07:57:45.173Z,100870
2015-05-07T07:58:53.769Z,100856
2015-05-07T08:00:02.429Z,100856
2015-05-07T08:01:11.024Z,100859
2015-05-07T08:02:19.668Z,100851
2015-05-07T08:03:28.295Z,100862
2015-05-07T08:04:36.953Z,100853
2015-05-07T08:05:45.611Z,100865
2015-05-07T08:06:54.224Z,100874
2015-05-07T08:08:02.835Z,100856
2015-05-07T08:09:11.432Z,100859
2015-05-07T08:10:20.044Z,100865
2015-05-07T08:11:28.640Z,100868
2015-05-07T08:12:37.208Z,100868
2015-05-07T08:13:45.851Z,100873
2015-05-07T08:14:54.467Z,100856
2015-05-07T08:16:03.129Z,100882
2015-05-07T08:17:11.774Z,100873
2015-05-07T08:18:20.421Z,100876
2015-05-07T08:19:29.051Z,100873
2015-05-07T08:20:37.690Z,100885
2015-05-07T08:21:46.339Z,100885
2015-05-07T08:22:54.959Z,100888
2015-05-07T08:24:03.592Z,100882
2015-05-07T08:25:12.258Z,100885
2015-05-07T08:26:20.918Z,100882
2015-05-07T08:27:29.580Z,100876
2015-05-07T08:28:38.214Z,100893
2015-05-07T08:29:46.813Z,100893
2015-05-07T08:30:55.472Z,100891
2015-05-07T08:32:04.085Z,100888
2015-05-07T08:33:13.386Z,100879
2015-05-07T08:34:21.983Z,100896
2015-05-07T08:35:30.579Z,100896
2015-05-07T08:36:40.160Z,100888
2015-05-07T08:37:48.835Z,100902
2015-05-07T08:38:57.571Z,100905
2015-05-07T08:40:06.199Z,100902
2015-05-07T08:41:14.814Z,100893
2015-05-07T08:42:23.456Z,100910
2015-05-07T08:43:32.116Z,100916
2015-05-07T08:44:40.680Z,100919
2015-05-07T08:45:49.323Z,100910
2015-05-07T08:46:57.966Z,100910
2015-05-07T08:48:06.609Z,100913
2015-05-07T08:49:15.208Z,100916
2015-05-07T08:50:23.835Z,100916
2015-05-07T08:51:32.509Z,100925
2015-05-07T08:52:41.120Z,100927
2015-05-07T08:53:49.731Z,100930
2015-05-07T08:54:58.344Z,100930
2015-05-07T08:56:06.986Z,100942
2015-05-07T08:57:15.663Z,100928
2015-05-07T08:58:24.275Z,100933
2015-05-07T08:59:32.871Z,100942
2015-05-07T09:00:41.483Z,100933
2015-05-07T09:01:50.063Z,100936
2015-05-07T09:02:58.675Z,100942
2015-05-07T09:04:07.271Z,100939
2015-05-07T09:05:15.914Z,100936
2015-05-07T09:06:24.559Z,100928
2015-05-07T09:07:33.172Z,100939
2015-05-07T09:08:41.814Z,100936
2015-05-07T09:09:50.457Z,100933
2015-05-07T09:10:59.131Z,100939
2015-05-07T09:12:07.743Z,100933
2015-05-07T09:13:16.339Z,100936
2015-05-07T09:14:24.951Z,100936
2015-05-07T09:15:33.580Z,100933
2015-05-07T09:16:42.176Z,100942
2015-05-07T09:17:50.804Z,100939
2015-05-07T09:18:59.431Z,100936
2015-05-07T09:20:08.058Z,100931
2015-05-07T09:21:16.670Z,100939
2015-05-07T09:22:25.313Z,100939
2015-05-07T09:23:33.959Z,100942
2015-05-07T09:24:42.554Z,100939
2015-05-07T09:25:51.182Z,100936
2015-05-07T09:26:59.794Z,100936
2015-05-07T09:28:08.405Z,100936
2015-05-07T09:29:17.018Z,100930
2015-05-07T09:30:25.644Z,100933
2015-05-07T09:31:34.289Z,100925
2015-05-07T09:32:42.963Z,100928
2015-05-07T09:33:51.575Z,100930
2015-05-07T09:35:00.188Z,100930
2015-05-07T09:36:08.815Z,100928
2015-05-07T09:37:17.473Z,100928
2015-05-07T09:38:26.085Z,100930
2015-05-07T09:39:34.775Z,100927
2015-05-07T09:40:43.433Z,100927
2015-05-07T09:41:52.079Z,100936
2015-05-07T09:43:05.440Z,100939
2015-05-07T09:44:14.099Z,100928
2015-05-07T09:45:22.773Z,100936
2015-05-07T09:46:31.463Z,100936
2015-05-07T09:47:40.153Z,100922
2015-05-07T09:48:48.797Z,100948
2015-05-07T09:49:57.424Z,100939
2015-05-07T09:51:06.160Z,100950
2015-05-07T09:52:14.803Z,100948
2015-05-07T09:53:23.433Z,100936
2015-05-07T09:54:32.045Z,100936
2015-05-07T09:55:40.658Z,100933
2015-05-07T09:56:49.299Z,100942
2015-05-07T09:57:57.943Z,100942
2015-05-07T09:59:06.587Z,100956
2015-05-07T10:00:15.214Z,100945
2015-05-07T10:01:23.762Z,100947
2015-05-07T10:02:32.359Z,100962
2015-05-07T10:03:41.018Z,100953
2015-05-07T10:04:49.708Z,100945
2015-05-07T10:05:58.335Z,100950
2015-05-07T10:07:06.993Z,100959
2015-05-07T10:08:15.655Z,100959
2015-05-07T10:09:24.236Z,100956
2015-05-07T10:10:32.864Z,100956
2015-05-07T10:11:41.506Z,100956
2015-05-07T10:12:50.133Z,100956
2015-05-07T10:13:58.839Z,100953
2015-05-07T10:15:07.466Z,100950
2015-05-07T10:16:16.344Z,100959
2015-05-07T10:17:24.971Z,100951
2015-05-07T10:18:33.615Z,100956
2015-05-07T10:19:42.242Z,100959
2015-05-07T10:20:50.870Z,100959
2015-05-07T10:21:59.481Z,100959
2015-05-07T10:23:08.861Z,100965
2015-05-07T10:24:18.238Z,100968
2015-05-07T10:25:27.178Z,100962
2015-05-07T10:26:36.149Z,100977
2015-05-07T10:27:45.011Z,100982
2015-05-07T10:28:53.607Z,100982
2015-05-07T10:30:02.235Z,100996
2015-05-07T10:31:11.349Z,100993
2015-05-07T10:32:19.976Z,100999
2015-05-07T10:33:28.759Z,100996
2015-05-07T10:34:37.339Z,100999
2015-05-07T10:35:45.967Z,100993
2015-05-07T10:36:54.563Z,100987
2015-05-07T10:38:03.190Z,100983
2015-05-07T10:39:11.818Z,100993
2015-05-07T10:40:20.433Z,100996
2015-05-07T10:41:29.091Z,100993
2015-05-07T10:42:37.718Z,100999
2015-05-07T10:43:46.376Z,100993
2015-05-07T10:44:54.973Z,100993
2015-05-07T10:46:03.615Z,101005
2015-05-07T10:47:12.243Z,100993
2015-05-07T10:48:20.824Z,100993
2015-05-07T10:49:29.467Z,100999
2015-05-07T10:50:38.080Z,100993
2015-05-07T10:51:46.769Z,101008
2015-05-07T10:52:55.399Z,100993
2015-05-07T10:54:04.447Z,101002
2015-05-07T10:55:13.106Z,100993
2015-05-07T10:56:21.719Z,100993
2015-05-07T10:57:30.330Z,100993
2015-05-07T10:58:38.973Z,100996
2015-05-07T10:59:47.585Z,101002
2015-05-07T11:00:56.212Z,100996
2015-05-07T11:02:04.810Z,100988
2015-05-07T11:03:13.421Z,100988
2015-05-07T11:04:22.018Z,100988
2015-05-07T11:05:30.660Z,100988
2015-05-07T11:06:39.287Z,100999
2015-05-07T11:07:47.915Z,101002
2015-05-07T11:08:56.497Z,100994
2015-05-07T11:10:05.092Z,100999
2015-05-07T11:11:13.785Z,100991
2015-05-07T11:12:22.427Z,100994
2015-05-07T11:13:31.102Z,101008
2015-05-07T11:14:39.745Z,101008
2015-05-07T11:15:48.356Z,101002
2015-05-07T11:16:56.983Z,101011
2015-05-07T11:18:05.580Z,100999
2015-05-07T11:19:14.192Z,101005
2015-05-07T11:20:22.804Z,101005
2015-05-07T11:21:31.418Z,100994
2015-05-07T11:22:40.045Z,101005
2015-05-07T11:23:48.720Z,101008
2015-05-07T11:24:57.346Z,101000
2015-05-07T11:26:05.943Z,101005
2015-05-07T11:27:14.539Z,101005
2015-05-07T11:28:23.197Z,101008
2015-05-07T11:29:31.840Z,101000
2015-05-07T11:30:40.470Z,101000
2015-05-07T11:31:53.285Z,100994
2015-05-07T11:33:01.896Z,100988
2015-05-07T11:34:10.492Z,101005
2015-05-07T11:35:19.167Z,100988
2015-05-07T11:36:27.825Z,100994
2015-05-07T11:37:36.469Z,100994
2015-05-07T11:38:45.114Z,100994
2015-05-07T11:39:53.741Z,101005
2015-05-07T11:41:02.368Z,101003
2015-05-07T11:42:11.370Z,101003
2015-05-07T11:43:19.998Z,101008
2015-05-07T11:44:28.625Z,101005
2015-05-07T11:45:37.222Z,101008
2015-05-07T11:46:45.880Z,100997
2015-05-07T11:47:54.539Z,101003
2015-05-07T11:49:03.200Z,100997
2015-05-07T11:50:11.780Z,100997
2015-05-07T11:51:20.361Z,101011
2015-05-07T11:52:28.957Z,101005
2015-05-07T11:53:37.569Z,101017
2015-05-07T11:54:46.243Z,101020
2015-05-07T11:55:54.870Z,101017
2015-05-07T11:57:03.483Z,101017
2015-05-07T11:58:12.078Z,101014
2015-05-07T11:59:20.693Z,101011
2015-05-07T12:00:29.335Z,101023
2015-05-07T12:01:37.948Z,101014
2015-05-07T12:02:46.575Z,101006
2015-05-07T12:03:55.202Z,101014
2015-05-07T12:05:03.845Z,101023
2015-05-07T12:06:12.457Z,101008
2015-05-07T12:07:21.084Z,101028
2015-05-07T12:08:29.681Z,101011
2015-05-07T12:09:38.294Z,101017
2015-05-07T12:10:46.921Z,101028
2015-05-07T12:11:55.533Z,101028
2015-05-07T12:13:04.191Z,101023
2015-05-07T12:14:12.834Z,101028
2015-05-07T12:15:21.462Z,101034
2015-05-07T12:16:30.058Z,101023
2015-05-07T12:17:39.217Z,101026
2015-05-07T12:18:47.797Z,101037
2015-05-07T12:19:56.412Z,101031
2015-05-07T12:21:05.040Z,101037
2015-05-07T12:22:13.667Z,101049
2015-05-07T12:23:22.278Z,101057
2015-05-07T12:24:30.905Z,101060
2015-05-07T12:25:39.549Z,101049
2015-05-07T12:26:48.144Z,101063
2015-05-07T12:27:56.772Z,101057
2015-05-07T12:29:05.402Z,101057
2015-05-07T12:30:14.044Z,101066
2015-05-07T12:31:22.687Z,101060
2015-05-07T12:32:31.315Z,101071
2015-05-07T12:33:39.896Z,101057
2015-05-07T12:34:48.507Z,101063
2015-05-07T12:35:57.165Z,101060
2015-05-07T12:37:05.793Z,101057
2015-05-07T12:38:14.407Z,101051
2015-05-07T12:39:23.002Z,101054
2015-05-07T12:40:31.630Z,101054
2015-05-07T12:41:40.273Z,101060
2015-05-07T12:42:48.916Z,101049
2015-05-07T12:43:57.529Z,101049
2015-05-07T12:45:06.265Z,101051
2015-05-07T12:46:14.892Z,101046
2015-05-07T12:47:23.520Z,101051
2015-05-07T12:48:32.147Z,101049
2015-05-07T12:49:40.821Z,101051
2015-05-07T12:50:49.468Z,101040
2015-05-07T12:51:58.063Z,101043
2015-05-07T12:53:06.659Z,101043
2015-05-07T12:54:15.318Z,101054
2015-05-07T12:55:23.945Z,101054
2015-05-07T12:56:32.573Z,101043
2015-05-07T12:57:41.216Z,101040
2015-05-07T12:58:49.890Z,101043
2015-05-07T12:59:58.535Z,101054
2015-05-07T13:01:07.146Z,101046
2015-05-07T13:02:15.773Z,101046
2015-05-07T13:03:24.402Z,101049
2015-05-07T13:04:33.076Z,101052
2015-05-07T13:05:41.703Z,101054
2015-05-07T13:06:50.315Z,101046
2015-05-07T13:07:58.911Z,101054
2015-05-07T13:09:07.523Z,101040
2015-05-07T13:10:16.182Z,101040
2015-05-07T13:11:24.827Z,101040
2015-05-07T13:12:33.486Z,101037
2015-05-07T13:13:42.128Z,101043
2015-05-07T13:14:50.756Z,101032
2015-05-07T13:15:59.368Z,101034
2015-05-07T13:17:07.979Z,101040
2015-05-07T13:18:16.637Z,101037
2015-05-07T13:19:25.284Z,101040
2015-05-07T13:20:33.910Z,101034
2015-05-07T13:21:42.521Z,101040
2015-05-07T13:22:51.165Z,101026
2015-05-07T13:23:59.761Z,101037
2015-05-07T13:25:08.373Z,101040
2015-05-07T13:26:17.016Z,101040
2015-05-07T13:27:25.612Z,101052
2015-05-07T13:28:34.241Z,101032
2015-05-07T13:29:42.837Z,101043
2015-05-07T13:30:51.449Z,101049
2015-05-07T13:32:00.045Z,101043
2015-05-07T13:33:08.672Z,101034
2015-05-07T13:34:17.268Z,101043
2015-05-07T13:35:25.865Z,101043
2015-05-07T13:36:34.509Z,101046
2015-05-07T13:37:43.184Z,101040
2015-05-07T13:38:51.828Z,101040
2015-05-07T13:40:00.455Z,101043
2015-05-07T13:41:09.082Z,101043
2015-05-07T13:42:17.710Z,101063
2015-05-07T13:43:26.368Z,101072
2015-05-07T13:44:35.011Z,101080
2015-05-07T13:45:43.686Z,101092
2015-05-07T13:46:52.299Z,101089
2015-05-07T13:48:00.896Z,101089
2015-05-07T13:49:09.523Z,101092
2015-05-07T13:50:18.151Z,101074
2015-05-07T13:51:26.778Z,101094
2015-05-07T13:52:35.405Z,101086
2015-05-07T13:53:44.017Z,101083
2015-05-07T13:54:52.629Z,101083
2015-05-07T13:56:01.227Z,101083
2015-05-07T13:57:09.886Z,101080
2015-05-07T13:58:18.481Z,101080
2015-05-07T13:59:27.030Z,101077
2015-05-07T14:00:35.643Z,101074
2015-05-07T14:01:44.270Z,101063
2015-05-07T14:02:52.913Z,101074
2015-05-07T14:04:01.525Z,101077
2015-05-07T14:05:10.136Z,101077
2015-05-07T14:06:18.750Z,101063
2015-05-07T14:07:27.363Z,101074
2015-05-07T14:08:35.990Z,101069
2015-05-07T14:09:44.632Z,101066
2015-05-07T14:10:53.167Z,101071
2015-05-07T14:12:01.778Z,101074
2015-05-07T14:13:10.405Z,101071
2015-05-07T14:14:19.439Z,101069
2015-05-07T14:15:28.051Z,101066
2015-05-07T14:16:36.681Z,101071
2015-05-07T14:17:45.292Z,101071
2015-05-07T14:18:53.920Z,101063
2015-05-07T14:20:02.531Z,101063
2015-05-07T14:21:11.783Z,101072
2015-05-07T14:22:20.395Z,101077
2015-05-07T14:23:29.007Z,101071
2015-05-07T14:24:37.603Z,101069
2015-05-07T14:25:46.217Z,101066
2015-05-07T14:26:54.844Z,101057
2015-05-07T14:28:03.457Z,101054
2015-05-07T14:29:12.084Z,101063
2015-05-07T14:30:20.757Z,101060
2015-05-07T14:31:29.385Z,101054
2015-05-07T14:32:38.012Z,101060
2015-05-07T14:33:46.639Z,101046
2015-05-07T14:34:55.269Z,101054
2015-05-07T14:36:03.881Z,101051
2015-05-07T14:37:12.509Z,101051
2015-05-07T14:38:21.120Z,101057
2015-05-07T14:39:30.342Z,101046
2015-05-07T14:40:38.955Z,101060
2015-05-07T14:41:47.534Z,101060
2015-05-07T14:42:56.131Z,101046
2015-05-07T14:44:04.727Z,101043
2015-05-07T14:45:13.371Z,101057
2015-05-07T14:46:21.966Z,101060
2015-05-07T14:47:30.641Z,101046
2015-05-07T14:48:39.239Z,101043
2015-05-07T14:49:47.898Z,101057
2015-05-07T14:50:56.541Z,101057
2015-05-07T14:52:05.621Z,101046
2015-05-07T14:53:14.249Z,101069
2015-05-07T14:54:22.892Z,101060
2015-05-07T14:56:28.428Z,101066
2015-05-07T14:57:37.055Z,101071
2015-05-07T14:58:45.685Z,101074
2015-05-07T14:59:54.286Z,101077
2015-05-07T15:01:02.929Z,101077
2015-05-07T15:02:11.556Z,101066
2015-05-07T15:03:20.183Z,101071
2015-05-07T15:04:28.810Z,101069
2015-05-07T15:05:37.438Z,101077
2015-05-07T15:06:46.065Z,101071
2015-05-07T15:07:54.695Z,101071
2015-05-07T15:09:03.667Z,101080
2015-05-07T15:10:12.341Z,101080
2015-05-07T15:11:22.047Z,101077
2015-05-07T15:12:30.658Z,101077
2015-05-07T15:13:39.271Z,101077
2015-05-07T15:14:47.959Z,101074
2015-05-07T15:15:56.588Z,101080
2015-05-07T15:17:05.231Z,101089
2015-05-07T15:18:13.826Z,101083
2015-05-07T15:19:22.470Z,101083
2015-05-07T15:20:31.068Z,101074
2015-05-07T15:21:39.742Z,101071
2015-05-07T15:22:48.370Z,101086
2015-05-07T15:23:57.012Z,101080
2015-05-07T15:25:06.186Z,101089
2015-05-07T15:26:14.799Z,101083
2015-05-07T15:27:23.410Z,101083
2015-05-07T15:28:32.509Z,101080
2015-05-07T15:29:41.151Z,101080
2015-05-07T15:30:49.763Z,101089
2015-05-07T15:31:58.391Z,101083
2015-05-07T15:33:07.018Z,101094
2015-05-07T15:34:15.707Z,101077
2015-05-07T15:35:24.365Z,101086
2015-05-07T15:36:33.025Z,101077
2015-05-07T15:37:42.074Z,101083
2015-05-07T15:38:50.720Z,101074
2015-05-07T15:39:59.332Z,101077
2015-05-07T15:41:07.959Z,101074
2015-05-07T15:42:16.586Z,101077
2015-05-07T15:43:25.214Z,101074
2015-05-07T15:44:33.857Z,101068
2015-05-07T15:45:42.531Z,101077
2015-05-07T15:46:51.158Z,101071
2015-05-07T15:47:59.708Z,101071
2015-05-07T15:49:08.944Z,101080
2015-05-07T15:50:17.637Z,101071
2015-05-07T15:51:26.311Z,101071
2015-05-07T15:52:35.407Z,101071
2015-05-07T15:53:44.097Z,101063
2015-05-07T15:54:52.771Z,101068
2015-05-07T15:56:01.446Z,101071
2015-05-07T15:57:10.073Z,101068
2015-05-07T15:58:18.715Z,101071
2015-05-07T15:59:27.361Z,101068
2015-05-07T16:00:35.957Z,101074
2015-05-07T16:01:44.599Z,101077
2015-05-07T16:02:53.273Z,101068
2015-05-07T16:04:01.886Z,101077
2015-05-07T16:05:16.934Z,101063
2015-05-07T16:06:25.562Z,101060
2015-05-07T16:07:34.223Z,101066
2015-05-07T16:08:42.851Z,101066
2015-05-07T16:09:51.462Z,101066
2015-05-07T16:11:00.058Z,101063
2015-05-07T16:12:08.701Z,101063
2015-05-07T16:13:17.735Z,101060
2015-05-07T16:14:26.410Z,101063
2015-05-07T16:15:35.069Z,101066
2015-05-07T16:16:43.696Z,101069
2015-05-07T16:17:52.292Z,101071
2015-05-07T16:19:00.904Z,101074
2015-05-07T16:20:09.502Z,101066
2015-05-07T16:21:18.177Z,101066
2015-05-07T16:22:26.819Z,101068
2015-05-07T16:23:35.432Z,101063
2015-05-07T16:24:44.090Z,101066
2015-05-07T16:25:52.732Z,101071
2015-05-07T16:27:01.376Z,101060
2015-05-07T16:28:10.034Z,101077
2015-05-07T16:29:18.757Z,101066
2015-05-07T16:30:27.401Z,101068
2015-05-07T16:31:36.028Z,101071
2015-05-07T16:32:44.703Z,101068
2015-05-07T16:33:53.361Z,101063
2015-05-07T16:35:53.038Z,101066
2015-05-07T16:37:01.665Z,101074
2015-05-07T16:38:10.354Z,101074
2015-05-07T16:39:19.028Z,101063
2015-05-07T16:40:27.722Z,101071
2015-05-07T16:41:36.379Z,101071
2015-05-07T16:42:45.022Z,101066
2015-05-07T16:43:53.649Z,101060
2015-05-07T16:45:02.293Z,101074
2015-05-07T16:46:10.920Z,101077
2015-05-07T16:47:19.547Z,101083
2015-05-07T16:48:28.254Z,101089
2015-05-07T16:49:36.911Z,101083
2015-05-07T16:50:45.571Z,101077
2015-05-07T16:51:54.292Z,101077
2015-05-07T16:53:02.935Z,101083
2015-05-07T16:54:11.564Z,101071
2015-05-07T16:55:20.239Z,101088
2015-05-07T16:56:28.866Z,101091
2015-05-07T16:57:37.525Z,101080
2015-05-07T16:58:46.168Z,101086
2015-05-07T16:59:54.764Z,101077
2015-05-07T17:01:03.392Z,101080
2015-05-07T17:02:12.708Z,101080
2015-05-07T17:03:21.398Z,101088
2015-05-07T17:04:30.072Z,101074
2015-05-07T17:05:38.732Z,101080
2015-05-07T17:06:47.343Z,101080
2015-05-07T17:07:56.033Z,101083
2015-05-07T17:09:07.692Z,101074
2015-05-07T17:10:16.350Z,101085
2015-05-07T17:11:24.978Z,101088
2015-05-07T17:12:33.589Z,101094
2015-05-07T17:13:42.218Z,101083
2015-05-07T17:14:50.862Z,101091
2015-05-07T17:15:59.490Z,101094
2015-05-07T17:17:08.133Z,101094
2015-05-07T17:18:16.791Z,101102
2015-05-07T17:19:26.105Z,101085
2015-05-07T17:20:34.749Z,101102
2015-05-07T17:21:43.394Z,101099
2015-05-07T17:22:52.466Z,101094
2015-05-07T17:24:01.087Z,101091
2015-05-07T17:25:09.724Z,101085
2015-05-07T17:26:18.831Z,101094
2015-05-07T17:27:27.509Z,101099
2015-05-07T17:28:36.109Z,101094
2015-05-07T17:29:44.725Z,101085
2015-05-07T17:30:53.403Z,101091
2015-05-07T17:32:02.064Z,101088
2015-05-07T17:33:10.743Z,101082
2015-05-07T17:34:19.386Z,101091
2015-05-07T17:35:28.484Z,101088
2015-05-07T17:36:37.095Z,101091
2015-05-07T17:37:45.723Z,101099
2015-05-07T17:38:54.430Z,101088
2015-05-07T17:40:03.073Z,101091
